Corte Madera, California
Current Conditions -  °F | °C
As of 10:55 PM on Sunday 23 Nov 2014 (Local Time) from KDVO Reporting Station
NA  
Wind Chill: 45°   Ceiling: NA
Heat Index: 45°   Visibility: NA
Dew Point: 41°   Wind: 0mph
Humidity: 87%   Direction: NA
Pressure: 30.35"   Gusts: NA
Location:  37.93°N, 122.52°W
Report Text: KDVO 240655Z AUTO 00000KT 07/05 A3035 RMK AO2
Loading
Personal Weather Stations






























Interactive Weather Map New forecast layout! Learn more

10-Day Weather Forecast

Advertisements
Track Severe Weather on mobile